createdAt,value
2019-01-25T00:02:04.122Z,1.50
2019-01-25T00:04:45.328Z,1.40
2019-01-25T00:10:13.993Z,1.40
2019-01-25T00:12:54.684Z,1.40
2019-01-25T00:15:35.403Z,1.40
2019-01-25T00:18:16.092Z,1.50
2019-01-25T00:20:56.527Z,1.50
2019-01-25T00:23:37.876Z,1.40
2019-01-25T00:26:17.594Z,1.40
2019-01-25T00:28:58.099Z,1.40
2019-01-25T00:31:38.668Z,1.40
2019-01-25T00:34:19.458Z,1.30
2019-01-25T00:36:59.850Z,1.30
2019-01-25T00:42:19.417Z,1.30
2019-01-25T00:44:47.919Z,1.30
2019-01-25T00:47:35.693Z,1.20
2019-01-25T00:50:23.794Z,1.20
2019-01-25T00:53:11.810Z,1.20
2019-01-25T00:55:52.528Z,1.20
2019-01-25T00:58:35.281Z,1.20
2019-01-25T01:01:15.752Z,1.10
2019-01-25T01:03:56.909Z,1.10
2019-01-25T01:06:37.776Z,1.10
2019-01-25T01:09:19.060Z,1.10
2019-01-25T01:11:58.969Z,1.10
2019-01-25T01:14:40.057Z,1.10
2019-01-25T01:17:21.000Z,1.10
2019-01-25T01:20:02.389Z,1.00
2019-01-25T01:22:43.120Z,1.00
2019-01-25T01:25:24.009Z,1.00
2019-01-25T01:28:05.033Z,1.00
2019-01-25T01:30:45.817Z,1.00
2019-01-25T01:33:27.578Z,0.90
2019-01-25T01:36:08.404Z,1.00
2019-01-25T01:38:49.258Z,0.90
2019-01-25T01:41:29.698Z,0.90
2019-01-25T01:44:10.476Z,0.90
2019-01-25T01:46:50.924Z,0.90
2019-01-25T01:49:32.079Z,0.90
2019-01-25T01:52:13.741Z,0.90
2019-01-25T01:54:54.480Z,0.90
2019-01-25T01:57:35.484Z,0.90
2019-01-25T02:00:16.188Z,0.90
2019-01-25T02:02:44.678Z,0.90
2019-01-25T02:05:25.687Z,0.80
2019-01-25T02:08:06.018Z,0.80
2019-01-25T02:10:47.086Z,0.80
2019-01-25T02:13:27.745Z,0.80
2019-01-25T02:16:08.436Z,0.80
2019-01-25T02:18:49.141Z,0.80
2019-01-25T02:21:29.903Z,0.80
2019-01-25T02:24:10.894Z,0.80
2019-01-25T02:26:51.353Z,0.70
2019-01-25T02:29:31.977Z,0.80
2019-01-25T02:32:13.085Z,0.70
2019-01-25T02:34:54.150Z,0.70
2019-01-25T02:37:34.836Z,0.70
2019-01-25T02:40:15.867Z,0.70
2019-01-25T02:42:56.153Z,0.60
2019-01-25T02:45:37.212Z,0.60
2019-01-25T02:48:17.922Z,0.60
2019-01-25T02:50:58.557Z,0.70
2019-01-25T02:53:39.081Z,0.60
2019-01-25T02:56:20.071Z,0.60
2019-01-25T02:59:01.288Z,0.60
2019-01-25T03:01:42.276Z,0.50
2019-01-25T03:04:23.174Z,0.50
2019-01-25T03:07:03.866Z,0.50
2019-01-25T03:09:45.301Z,0.50
2019-01-25T03:12:25.996Z,0.50
2019-01-25T03:15:06.820Z,0.50
2019-01-25T03:17:47.559Z,0.50
2019-01-25T03:20:28.020Z,0.40
2019-01-25T03:23:09.315Z,0.40
2019-01-25T03:25:49.779Z,0.40
2019-01-25T03:28:31.614Z,0.40
2019-01-25T03:31:12.786Z,0.40
2019-01-25T03:33:53.561Z,0.40
2019-01-25T03:36:34.615Z,0.40
2019-01-25T03:39:17.345Z,0.40
2019-01-25T03:41:58.135Z,0.30
2019-01-25T03:44:38.736Z,0.40
2019-01-25T03:47:19.368Z,0.30
2019-01-25T03:50:02.307Z,0.30
2019-01-25T03:52:43.361Z,0.30
2019-01-25T03:55:26.114Z,0.30
2019-01-25T03:58:06.765Z,0.30
2019-01-25T04:00:48.195Z,0.30
2019-01-25T04:03:31.473Z,0.20
2019-01-25T04:06:12.055Z,0.20
2019-01-25T04:08:52.963Z,0.20
2019-01-25T04:11:33.836Z,0.20
2019-01-25T04:14:14.258Z,0.10
2019-01-25T04:16:55.162Z,0.10
2019-01-25T04:19:35.997Z,0.10
2019-01-25T04:22:17.385Z,0.10
2019-01-25T04:24:58.454Z,0.10
2019-01-25T04:27:39.474Z,0.00
2019-01-25T04:30:19.961Z,0.00
2019-01-25T04:33:00.131Z,0.00
2019-01-25T04:35:41.159Z,0.00
2019-01-25T04:38:22.048Z,0.00
2019-01-25T04:41:11.479Z,-0.10
2019-01-25T04:43:47.370Z,-0.10
2019-01-25T04:46:28.439Z,-0.10
2019-01-25T04:49:09.771Z,-0.10
2019-01-25T04:51:50.710Z,-0.10
2019-01-25T04:54:31.137Z,-0.10
2019-01-25T04:57:12.405Z,-0.20
2019-01-25T04:59:53.526Z,-0.20
2019-01-25T05:02:34.053Z,-0.20
2019-01-25T05:05:14.989Z,-0.20
2019-01-25T05:07:57.850Z,-0.20
2019-01-25T05:10:39.012Z,-0.20
2019-01-25T05:13:19.710Z,-0.20
2019-01-25T05:16:00.545Z,-0.30
2019-01-25T05:18:41.140Z,-0.30
2019-01-25T05:21:22.434Z,-0.30
2019-01-25T05:24:04.811Z,-0.30
2019-01-25T05:26:45.840Z,-0.30
2019-01-25T05:29:26.708Z,-0.30
2019-01-25T05:32:07.191Z,-0.30
2019-01-25T05:34:48.030Z,-0.30
2019-01-25T05:37:31.169Z,-0.30
2019-01-25T05:40:13.885Z,-0.30
2019-01-25T05:42:54.903Z,-0.30
2019-01-25T05:45:35.695Z,-0.30
2019-01-25T05:48:16.265Z,-0.40
2019-01-25T05:50:57.668Z,-0.30
2019-01-25T05:53:38.409Z,-0.40
2019-01-25T05:56:19.192Z,-0.40
2019-01-25T05:58:59.605Z,-0.40
2019-01-25T06:01:42.490Z,-0.40
2019-01-25T06:04:23.392Z,-0.40
2019-01-25T06:07:04.151Z,-0.40
2019-01-25T06:09:44.749Z,-0.40
2019-01-25T06:12:28.259Z,-0.40
2019-01-25T06:18:13.526Z,-0.40
2019-01-25T06:20:53.965Z,-0.40
2019-01-25T06:23:34.755Z,-0.40
2019-01-25T06:29:19.229Z,-0.40
2019-01-25T06:31:47.694Z,-0.50
2019-01-25T06:34:35.693Z,-0.40
2019-01-25T06:37:16.493Z,-0.50
2019-01-25T06:39:57.410Z,-0.50
2019-01-25T06:42:38.085Z,-0.50
2019-01-25T06:45:18.917Z,-0.40
2019-01-25T06:47:59.475Z,-0.40
2019-01-25T06:50:40.248Z,-0.40
2019-01-25T06:53:20.516Z,-0.50
2019-01-25T06:56:01.209Z,-0.50
2019-01-25T06:58:44.030Z,-0.50
2019-01-25T07:01:26.753Z,-0.50
2019-01-25T07:04:07.469Z,-0.50
2019-01-25T07:06:49.987Z,-0.50
2019-01-25T07:09:31.116Z,-0.50
2019-01-25T07:11:59.563Z,-0.60
2019-01-25T07:14:47.376Z,-0.70
2019-01-25T07:20:22.957Z,-0.80
2019-01-25T07:23:03.726Z,-0.90
2019-01-25T07:25:47.801Z,-0.90
2019-01-25T07:28:16.399Z,-1.00
2019-01-25T07:31:04.474Z,-1.10
2019-01-25T07:33:33.148Z,-1.10
2019-01-25T07:36:21.251Z,-1.10
2019-01-25T07:39:01.881Z,-1.10
2019-01-25T07:41:42.682Z,-1.00
2019-01-25T07:44:23.600Z,-1.10
2019-01-25T07:47:04.352Z,-1.00
2019-01-25T07:49:45.634Z,-1.00
2019-01-25T07:52:26.870Z,-0.90
2019-01-25T07:55:09.118Z,-0.90
2019-01-25T07:57:49.624Z,-0.90
2019-01-25T08:00:30.326Z,-0.90
2019-01-25T08:03:12.313Z,-0.90
2019-01-25T08:05:52.666Z,-0.80
2019-01-25T08:08:33.499Z,-0.80
2019-01-25T08:11:15.117Z,-0.80
2019-01-25T08:13:57.078Z,-0.80
2019-01-25T08:16:38.568Z,-0.80
2019-01-25T08:19:26.342Z,-0.80
2019-01-25T08:24:48.528Z,-0.70
2019-01-25T08:30:16.797Z,-0.70
2019-01-25T08:32:57.873Z,-0.60
2019-01-25T08:35:38.708Z,-0.60
2019-01-25T08:38:19.475Z,-0.70
2019-01-25T08:41:28.143Z,-0.80
2019-01-25T08:47:46.260Z,-0.80
2019-01-25T08:50:27.531Z,-0.70
2019-01-25T08:56:04.708Z,-0.60
2019-01-25T09:10:24.356Z,-0.40
2019-01-25T09:27:16.305Z,-0.20
2019-01-25T09:29:57.549Z,-0.20
2019-01-25T09:38:16.383Z,0.10
2019-01-25T09:40:45.338Z,0.10
2019-01-25T09:43:27.968Z,0.10
2019-01-25T10:00:38.700Z,0.30
2019-01-25T10:03:19.615Z,0.40
2019-01-25T10:06:00.376Z,0.20
2019-01-25T10:14:43.817Z,0.10
2019-01-25T10:20:33.539Z,0.20
2019-01-25T10:23:14.995Z,0.30
2019-01-25T10:34:32.545Z,0.50
2019-01-25T10:56:08.645Z,0.80
2019-01-25T11:37:09.599Z,1.50
2019-01-25T11:39:54.617Z,1.50
2019-01-25T11:42:34.916Z,1.50
2019-01-25T11:48:03.284Z,1.40
2019-01-25T11:53:42.282Z,1.60
2019-01-25T11:56:22.009Z,1.70
2019-01-25T11:59:03.093Z,1.70
2019-01-25T12:01:44.354Z,1.80
2019-01-25T12:07:20.687Z,1.90
2019-01-25T12:12:46.688Z,1.90
2019-01-25T12:24:45.265Z,2.00
2019-01-25T12:27:27.527Z,2.10
2019-01-25T12:33:22.572Z,2.10
2019-01-25T12:36:10.549Z,2.10
2019-01-25T12:42:26.094Z,2.10
2019-01-25T12:44:54.574Z,1.90
2019-01-25T12:47:23.126Z,1.90
2019-01-25T12:49:51.680Z,1.90
2019-01-25T12:52:39.470Z,1.90
2019-01-25T12:55:19.925Z,1.90
2019-01-25T12:58:01.148Z,1.90
2019-01-25T13:00:42.580Z,2.00
2019-01-25T13:03:24.113Z,2.00
2019-01-25T13:05:52.623Z,2.00
2019-01-25T13:08:40.443Z,2.00
2019-01-25T13:11:28.250Z,2.00
2019-01-25T13:13:56.717Z,2.00
2019-01-25T13:16:25.239Z,2.00
2019-01-25T13:22:15.634Z,2.00
2019-01-25T13:27:49.437Z,2.00
2019-01-25T13:30:37.243Z,2.00
2019-01-25T13:33:25.422Z,2.10
2019-01-25T13:36:13.240Z,2.00
2019-01-25T13:39:01.025Z,2.00
2019-01-25T13:41:48.822Z,2.10
2019-01-25T13:44:36.829Z,2.10
2019-01-25T13:47:18.006Z,2.10
2019-01-25T13:49:58.722Z,2.10
2019-01-25T13:52:39.847Z,2.10
2019-01-25T13:55:20.733Z,2.10
2019-01-25T13:58:01.881Z,2.10
2019-01-25T14:00:49.922Z,2.10
2019-01-25T14:03:30.883Z,2.10
2019-01-25T14:09:11.121Z,2.10
2019-01-25T14:11:51.853Z,2.10
2019-01-25T14:14:32.821Z,2.10
2019-01-25T14:17:13.959Z,2.10
2019-01-25T14:25:42.056Z,2.00
2019-01-25T14:31:12.883Z,2.00
2019-01-25T14:33:56.042Z,2.00
2019-01-25T14:39:24.629Z,2.00
2019-01-25T14:42:05.232Z,2.00
2019-01-25T14:44:45.958Z,2.00
2019-01-25T14:53:23.942Z,2.00
2019-01-25T14:56:04.797Z,2.00
2019-01-25T14:58:45.670Z,2.00
2019-01-25T15:01:26.262Z,2.00
2019-01-25T15:03:54.940Z,2.00
2019-01-25T15:06:42.932Z,1.90
2019-01-25T15:09:11.523Z,1.90
2019-01-25T15:11:59.728Z,1.90
2019-01-25T15:17:45.943Z,1.90
2019-01-25T15:20:26.929Z,1.90
2019-01-25T15:23:09.054Z,1.90
2019-01-25T15:25:49.351Z,1.90
2019-01-25T15:31:16.282Z,1.80
2019-01-25T15:33:56.911Z,1.70
2019-01-25T15:36:38.934Z,1.70
2019-01-25T15:39:19.609Z,1.70
2019-01-25T15:44:56.771Z,1.70
2019-01-25T15:47:37.333Z,1.60
2019-01-25T15:50:45.821Z,1.60
2019-01-25T15:53:33.630Z,1.60
2019-01-25T15:58:58.697Z,1.60
2019-01-25T16:01:39.153Z,1.60
2019-01-25T16:04:19.989Z,1.60
2019-01-25T16:07:00.554Z,1.60
2019-01-25T16:09:41.947Z,1.50
2019-01-25T16:12:23.070Z,1.50
2019-01-25T16:15:05.357Z,1.50
2019-01-25T16:17:46.603Z,1.50
2019-01-25T16:26:04.708Z,1.50
2019-01-25T16:28:46.086Z,1.50
2019-01-25T16:31:29.379Z,1.50
2019-01-25T16:34:10.222Z,1.40
2019-01-25T16:36:51.062Z,1.40
2019-01-25T16:39:32.250Z,1.40
2019-01-25T16:42:13.147Z,1.40
2019-01-25T16:44:41.601Z,1.40
2019-01-25T16:47:48.709Z,1.30
2019-01-25T16:50:37.031Z,1.30
2019-01-25T16:53:19.846Z,1.30
2019-01-25T16:56:00.484Z,1.30
2019-01-25T16:58:42.842Z,1.30
2019-01-25T17:01:23.262Z,1.20
2019-01-25T17:04:05.307Z,1.20
2019-01-25T17:06:46.968Z,1.20
2019-01-25T17:09:27.375Z,1.20
2019-01-25T17:12:09.647Z,1.20
2019-01-25T17:14:59.126Z,1.10
2019-01-25T17:20:28.853Z,1.10
2019-01-25T17:23:09.582Z,1.10
2019-01-25T17:25:50.359Z,1.10
2019-01-25T17:28:31.275Z,1.10
2019-01-25T17:31:12.499Z,1.00
2019-01-25T17:33:53.464Z,1.00
2019-01-25T17:36:34.572Z,1.00
2019-01-25T17:39:15.989Z,1.00
2019-01-25T17:41:57.021Z,0.90
2019-01-25T17:44:41.427Z,0.90
2019-01-25T17:47:20.776Z,1.00
2019-01-25T17:50:01.662Z,1.10
2019-01-25T17:52:42.343Z,1.20
2019-01-25T17:55:23.149Z,1.20
2019-01-25T17:58:08.188Z,1.30
2019-01-25T18:00:47.602Z,1.40
2019-01-25T18:03:30.209Z,1.40
2019-01-25T18:06:12.264Z,1.60
2019-01-25T18:08:54.198Z,1.60
2019-01-25T18:11:35.458Z,1.70
2019-01-25T18:14:16.897Z,1.80
2019-01-25T18:16:45.439Z,1.80
2019-01-25T18:19:33.284Z,1.80
2019-01-25T18:22:21.349Z,1.90
2019-01-25T18:25:02.172Z,1.90
2019-01-25T18:27:42.879Z,2.00
2019-01-25T18:30:25.062Z,2.10
2019-01-25T18:33:05.823Z,2.10
2019-01-25T18:35:46.462Z,2.10
2019-01-25T18:38:28.569Z,2.10
2019-01-25T18:41:09.231Z,2.20
2019-01-25T18:43:50.029Z,2.30
2019-01-25T18:46:30.932Z,2.30
2019-01-25T18:49:13.589Z,2.30
2019-01-25T18:51:55.350Z,2.40
2019-01-25T18:54:36.063Z,2.40
2019-01-25T18:57:18.096Z,2.40
2019-01-25T18:59:59.271Z,2.50
2019-01-25T19:02:28.158Z,2.50
2019-01-25T19:05:16.088Z,2.60
2019-01-25T19:07:56.058Z,2.60
2019-01-25T19:10:37.237Z,2.60
2019-01-25T19:13:05.793Z,2.70
2019-01-25T19:16:07.399Z,2.70
2019-01-25T19:18:36.005Z,2.70
2019-01-25T19:21:17.283Z,2.80
2019-01-25T19:23:58.219Z,2.80
2019-01-25T19:26:27.079Z,2.90
2019-01-25T19:32:15.126Z,2.90
2019-01-25T19:34:55.621Z,2.80
2019-01-25T19:37:37.247Z,2.90
2019-01-25T19:40:17.845Z,2.90
2019-01-25T19:42:58.577Z,2.90
2019-01-25T19:45:39.520Z,3.00
2019-01-25T19:48:20.262Z,2.90
2019-01-25T19:51:01.183Z,2.90
2019-01-25T19:53:41.963Z,2.90
2019-01-25T19:56:22.680Z,3.00
2019-01-25T19:59:03.883Z,2.90
2019-01-25T20:01:44.545Z,2.90
2019-01-25T20:04:26.762Z,2.90
2019-01-25T20:07:06.907Z,2.90
2019-01-25T20:09:47.620Z,2.90
2019-01-25T20:12:28.013Z,2.90
2019-01-25T20:15:10.084Z,2.90
2019-01-25T20:17:50.947Z,2.90
2019-01-25T20:20:31.645Z,2.90
2019-01-25T20:23:12.735Z,2.80
2019-01-25T20:25:53.794Z,2.80
2019-01-25T20:31:21.148Z,2.90
2019-01-25T20:36:43.591Z,2.80
2019-01-25T20:39:25.685Z,2.80
2019-01-25T20:42:07.774Z,2.80
2019-01-25T20:44:48.243Z,2.70
2019-01-25T20:47:30.699Z,2.70
2019-01-25T20:50:11.864Z,2.70
2019-01-25T20:52:52.599Z,2.60
2019-01-25T20:55:33.406Z,2.60
2019-01-25T20:58:14.759Z,2.50
2019-01-25T21:00:55.499Z,2.50
2019-01-25T21:06:23.346Z,2.50
2019-01-25T21:09:05.518Z,2.50
2019-01-25T21:11:46.410Z,2.50
2019-01-25T21:14:14.866Z,2.40
2019-01-25T21:17:02.792Z,2.40
2019-01-25T21:19:43.685Z,2.40
2019-01-25T21:22:13.218Z,2.40
2019-01-25T21:28:14.802Z,2.40
2019-01-25T21:30:56.804Z,2.40
2019-01-25T21:33:38.279Z,2.30
2019-01-25T21:36:19.234Z,2.40
2019-01-25T21:41:55.048Z,2.30
2019-01-25T21:44:37.502Z,2.30
2019-01-25T21:47:19.376Z,2.30
2019-01-25T21:50:01.023Z,2.30
2019-01-25T21:52:41.994Z,2.30
2019-01-25T21:58:20.292Z,2.30
2019-01-25T22:01:00.886Z,2.30
2019-01-25T22:06:28.129Z,2.20
2019-01-25T22:09:09.286Z,2.20
2019-01-25T22:14:45.332Z,2.20
2019-01-25T22:17:33.920Z,2.20
2019-01-25T22:20:14.792Z,2.20
2019-01-25T22:22:56.080Z,2.20
2019-01-25T22:25:38.230Z,2.10
2019-01-25T22:28:19.567Z,2.20
2019-01-25T22:30:48.047Z,2.10
2019-01-25T22:39:50.728Z,2.30
2019-01-25T22:42:31.643Z,2.20
2019-01-25T22:45:12.354Z,2.10
2019-01-25T22:47:54.293Z,2.10
2019-01-25T22:53:27.865Z,2.10
2019-01-25T22:56:09.178Z,2.10
2019-01-25T22:58:51.046Z,2.10
2019-01-25T23:01:32.625Z,2.00
2019-01-25T23:04:39.785Z,2.00
2019-01-25T23:07:27.614Z,2.00
2019-01-25T23:10:10.342Z,2.00
2019-01-25T23:12:51.173Z,2.00
2019-01-25T23:15:33.397Z,2.00
2019-01-25T23:18:14.576Z,2.00
2019-01-25T23:20:55.465Z,2.00
2019-01-25T23:23:36.486Z,2.00
2019-01-25T23:26:17.191Z,2.00
2019-01-25T23:31:44.863Z,2.00
2019-01-25T23:34:25.340Z,1.90
2019-01-25T23:37:07.920Z,1.90
2019-01-25T23:39:49.814Z,1.90
2019-01-25T23:42:30.811Z,1.90
2019-01-25T23:45:11.729Z,1.90
2019-01-25T23:47:53.057Z,1.90
2019-01-25T23:50:34.193Z,1.90
2019-01-25T23:53:14.963Z,1.90
2019-01-25T23:58:34.960Z,1.90
